Shell Beach, Louisiana
Current Conditions -  °F | °C
As of 11:55 AM on Thursday 18 Dec 2014 (Local Time) from KNBG Reporting Station
Broken Clouds Broken Clouds  
Wind Chill: 66°   Ceiling: 25000
Heat Index: 66°   Visibility: 10mi
Dew Point: 52°   Wind: 12mph
Humidity: 60%   Direction: 130°SE
Pressure: 30.15"   Gusts: NA
Location:  29.8369°N, 89.7702°W
Report Text: KNBG 181755Z 13010KT 10SM SCT100 BKN250 19/11 A3015 RMK AO2 SLP207 T01890111 10194 20078 58015 $
Loading
Personal Weather Stations






























Interactive Weather Map New forecast layout! Learn more

10-Day Weather Forecast

Advertisements
Track Severe Weather on mobile